Flight Briefing for CPX810

Departure Arrival
Ramstein Air Force Base (ETAR)
Click to view FAA NOTAMS
Joint Base McGuire Dix Lakehurst (KWRI)
Click to view FAA NOTAMS
Departure Time Arrival Time
N/A N/A
Aircraft Distance
B767-300BDSF 3394nm
Departure METAR Arrival METAR
ETAR 152056Z 00000KT 9999 CLR M01/M01 A3040 RMK AO2A SLP311 T10121012 56003 $ KWRI 152056Z 23013G20KT 10SM FEW085 17/04 A2960 RMK AO2A SLP023 T01650042 57017 VISNO RWY06 $
Suggested Route





View recent IFR Routes data
Notes
USTRANSCOM CONTRACT FLIGHT

Charts and Procedures

Charts for ETAR
No chart available
Charts for KWRI
No chart available

Ventusky Weather